Time;durP1;ratioP1;P1;durP2;ratioP2;P2;SDS_P1;SDS_P2;PMS_P1;PMS_P2;Temp;Humidity;BMP_temperature;BMP_pressure;BME280_temperature;BME280_humidity;BME280_pressure;Samples;Min_cycle;Max_cycle;Signal;HPM_P1;HPM_P2
2021/12/05 00:23:27;;;;;;;27.73;11.67;;;3.10;99.90;;;;;;4937888;29;20142;-88
2021/12/05 00:25:56;;;;;;;29.67;14.38;;;3.20;99.90;;;;;;4919641;29;20416;-89
2021/12/05 00:47:07;;;;;;;;;;;3.20;99.90;;;;;;4919794;29;20052;-88
2021/12/05 00:52:53;;;;;;;24.13;10.00;;;3.20;99.90;;;;;;4920512;29;20054;-89
2021/12/05 00:58:26;;;;;;;19.53;8.37;;;3.30;99.90;;;;;;4938172;29;20146;-89
2021/12/05 01:01:09;;;;;;;34.90;14.13;;;3.10;99.90;;;;;;4919395;29;20417;-89
2021/12/05 01:04:26;;;;;;;31.43;12.83;;;3.30;99.90;;;;;;4920248;29;20497;-89
2021/12/05 01:16:57;;;;;;;21.27;9.40;;;3.20;99.90;;;;;;4919790;29;20062;-89
2021/12/05 01:19:26;;;;;;;24.57;9.73;;;4.20;99.90;;;;;;4920591;29;20051;-89
2021/12/05 01:22:00;;;;;;;20.77;8.33;;;3.10;99.90;;;;;;4919651;29;20086;-89
2021/12/05 01:32:36;;;;;;;22.77;10.60;;;3.00;99.90;;;;;;4936533;29;20074;-89
2021/12/05 01:35:17;;;;;;;22.90;10.03;;;3.20;99.90;;;;;;4919792;29;20055;-90
2021/12/05 01:38:08;;;;;;;22.60;8.57;;;3.20;99.90;;;;;;4919361;29;20052;-90
2021/12/05 01:40:57;;;;;;;20.73;9.33;;;3.40;99.90;;;;;;4919601;29;20051;-89
2021/12/05 01:54:21;;;;;;;23.80;9.50;;;3.20;99.90;;;;;;4920436;29;19922;-90
2021/12/05 01:59:54;;;;;;;25.93;10.63;;;3.20;99.90;;;;;;4925277;29;20052;-90
2021/12/05 02:08:03;;;;;;;24.17;12.50;;;3.20;99.90;;;;;;4923481;29;20490;-89
2021/12/05 02:16:01;;;;;;;31.90;15.13;;;3.30;99.90;;;;;;4922277;29;20048;-90
2021/12/05 02:34:41;;;;;;;36.60;16.47;;;3.40;99.90;;;;;;4923232;29;20070;-90
2021/12/05 02:39:54;;;;;;;37.10;17.47;;;3.40;99.90;;;;;;4922720;29;20051;-89
2021/12/05 02:42:32;;;;;;;33.70;16.33;;;3.30;99.90;;;;;;4923747;29;20372;-90
2021/12/05 02:44:59;;;;;;;33.17;16.50;;;3.30;99.90;;;;;;4922174;29;20055;-90
2021/12/05 02:47:27;;;;;;;34.27;16.97;;;3.40;99.90;;;;;;4921830;29;20054;-90
2021/12/05 02:49:58;;;;;;;39.67;17.70;;;3.30;99.90;;;;;;4922414;29;20524;-90
2021/12/05 02:52:30;;;;;;;34.23;16.33;;;3.30;99.90;;;;;;4923971;29;20039;-90
2021/12/05 02:55:10;;;;;;;31.93;14.60;;;4.20;99.90;;;;;;4921288;29;20052;-90
2021/12/05 03:00:18;;;;;;;39.07;18.90;;;3.40;99.90;;;;;;4921301;28;20055;-89
2021/12/05 03:02:47;;;;;;;32.10;15.67;;;3.50;99.90;;;;;;4941294;29;20057;-90
2021/12/05 03:05:18;;;;;;;29.47;15.70;;;3.40;99.90;;;;;;4940398;29;20047;-91
2021/12/05 03:07:47;;;;;;;28.77;13.70;;;4.30;99.90;;;;;;4940314;29;20133;-91
2021/12/05 03:10:15;;;;;;;28.60;15.30;;;4.40;99.90;;;;;;4940609;29;20408;-90
2021/12/05 03:12:43;;;;;;;29.23;13.60;;;3.30;99.90;;;;;;4940769;29;20050;-90
2021/12/05 03:15:11;;;;;;;32.90;16.30;;;3.30;99.90;;;;;;4939987;29;20138;-90
2021/12/05 03:17:37;;;;;;;30.27;14.17;;;3.80;99.90;;;;;;4940977;29;20051;-90
2021/12/05 03:20:05;;;;;;;23.60;12.77;;;3.30;99.90;;;;;;4940761;29;20579;-90
2021/12/05 03:22:31;;;;;;;26.50;12.20;;;3.50;99.90;;;;;;4940436;29;20054;-90
2021/12/05 03:24:57;;;;;;;30.60;13.13;;;3.40;99.90;;;;;;4941003;29;20055;-91
2021/12/05 03:27:23;;;;;;;29.83;13.00;;;4.40;99.90;;;;;;4940801;29;20050;-90
2021/12/05 03:29:49;;;;;;;27.07;11.60;;;3.40;99.90;;;;;;4939742;29;20488;-90
2021/12/05 03:32:15;;;;;;;24.23;11.40;;;3.30;99.90;;;;;;4941254;29;20133;-90
2021/12/05 03:34:40;;;;;;;27.50;11.57;;;3.40;99.90;;;;;;4940184;29;20055;-89
2021/12/05 03:37:08;;;;;;;25.47;10.67;;;3.30;99.90;;;;;;4939604;29;20087;-90
2021/12/05 03:39:34;;;;;;;24.27;11.63;;;3.30;99.90;;;;;;4940058;29;20134;-90
2021/12/05 03:42:00;;;;;;;26.40;10.53;;;3.30;99.90;;;;;;4956733;28;20050;-90
2021/12/05 03:44:30;;;;;;;23.97;10.23;;;3.90;99.90;;;;;;4939905;29;20043;-90
2021/12/05 03:46:56;;;;;;;22.67;10.43;;;3.20;99.90;;;;;;4940258;29;20059;-91
2021/12/05 03:49:23;;;;;;;23.13;9.43;;;3.20;99.90;;;;;;4939947;29;20051;-90
2021/12/05 03:51:57;;;;;;;23.07;9.67;;;3.10;99.90;;;;;;4940243;29;20491;-90
2021/12/05 03:54:24;;;;;;;27.17;10.48;;;3.20;99.90;;;;;;4941730;29;20047;-90
2021/12/05 03:56:50;;;;;;;23.70;9.57;;;3.10;99.90;;;;;;4962030;28;20042;-90
2021/12/05 03:59:17;;;;;;;20.47;8.87;;;3.20;99.90;;;;;;4943370;29;20129;-90
2021/12/05 04:01:44;;;;;;;19.87;8.17;;;3.00;99.90;;;;;;4939943;29;20047;-90
2021/12/05 04:04:11;;;;;;;24.27;8.90;;;3.10;99.90;;;;;;4945206;28;20023;-90
2021/12/05 04:06:37;;;;;;;21.07;8.30;;;2.90;99.90;;;;;;4960824;28;20075;-90
2021/12/05 04:09:06;;;;;;;19.67;7.37;;;3.00;99.90;;;;;;4940774;29;20043;-90
2021/12/05 04:11:38;;;;;;;24.13;8.53;;;2.80;99.90;;;;;;4940276;29;20131;-90
2021/12/05 04:14:06;;;;;;;22.13;8.83;;;3.00;99.90;;;;;;4939721;29;20492;-90
2021/12/05 04:16:33;;;;;;;20.60;8.33;;;3.90;99.90;;;;;;4940054;29;20540;-90
2021/12/05 04:19:04;;;;;;;19.83;8.03;;;2.90;99.90;;;;;;4941265;29;20081;-90
2021/12/05 04:21:31;;;;;;;22.90;8.20;;;2.80;99.90;;;;;;4939842;29;20492;-89
2021/12/05 04:23:58;;;;;;;19.17;6.80;;;3.00;99.90;;;;;;4939201;29;20134;-89
2021/12/05 04:26:24;;;;;;;22.10;7.73;;;3.60;99.90;;;;;;4938993;29;20054;-90
2021/12/05 04:28:50;;;;;;;19.60;7.80;;;2.80;99.90;;;;;;4939586;29;20403;-89
2021/12/05 04:31:20;;;;;;;25.10;7.67;;;4.00;99.90;;;;;;4940793;29;20051;-88
2021/12/05 04:33:45;;;;;;;20.93;8.30;;;2.90;99.90;;;;;;4956016;28;20095;-89
2021/12/05 04:36:11;;;;;;;27.07;8.90;;;2.70;99.90;;;;;;4960266;28;20400;-89
2021/12/05 04:38:37;;;;;;;27.23;10.17;;;2.70;99.90;;;;;;4960909;28;20061;-89
2021/12/05 04:41:04;;;;;;;20.37;8.10;;;2.70;99.90;;;;;;4956371;29;20058;-89
2021/12/05 04:43:36;;;;;;;26.30;11.30;;;2.70;99.90;;;;;;4939331;29;20138;-89
2021/12/05 04:46:03;;;;;;;21.87;7.47;;;2.60;99.90;;;;;;4939474;29;20051;-90
2021/12/05 04:48:29;;;;;;;21.50;9.03;;;2.70;99.90;;;;;;4940344;29;20043;-90
2021/12/05 04:50:55;;;;;;;19.40;7.93;;;2.60;99.90;;;;;;4939849;29;20050;-89
2021/12/05 04:53:22;;;;;;;18.90;7.57;;;2.60;99.90;;;;;;4938494;29;20063;-90
2021/12/05 04:55:47;;;;;;;18.80;7.70;;;2.60;99.90;;;;;;4939162;29;20048;-90
2021/12/05 04:58:13;;;;;;;18.83;7.90;;;2.60;99.90;;;;;;4940050;29;20043;-89
2021/12/05 05:00:44;;;;;;;19.17;7.30;;;2.50;99.90;;;;;;4938765;29;20404;-89
2021/12/05 05:03:11;;;;;;;20.80;7.57;;;2.40;99.90;;;;;;4939837;29;20075;-89
2021/12/05 05:05:42;;;;;;;24.00;8.13;;;2.40;99.90;;;;;;4938287;29;20051;-89
2021/12/05 05:08:08;;;;;;;23.80;7.93;;;2.30;99.90;;;;;;4939553;29;20048;-89
2021/12/05 05:10:35;;;;;;;22.93;7.63;;;2.30;99.90;;;;;;4940317;29;20050;-89
2021/12/05 05:13:00;;;;;;;20.87;7.40;;;3.50;99.90;;;;;;4940016;29;20054;-90
2021/12/05 05:15:30;;;;;;;23.97;7.67;;;2.40;99.90;;;;;;4939585;29;20051;-89
2021/12/05 05:17:57;;;;;;;25.27;8.20;;;2.40;99.90;;;;;;4938544;29;20126;-90
2021/12/05 05:20:52;;;;;;;22.70;8.10;;;3.10;99.90;;;;;;4939208;29;20087;-90
2021/12/05 05:23:31;;;;;;;21.05;7.78;;;2.40;99.90;;;;;;4939439;29;20066;-90
2021/12/05 05:50:41;;;;;;;23.17;7.30;;;2.40;99.90;;;;;;4940972;28;20027;-90
2021/12/05 05:53:07;;;;;;;17.77;6.40;;;2.30;99.90;;;;;;4962703;29;20082;-90
2021/12/05 05:55:37;;;;;;;21.13;7.23;;;2.30;99.90;;;;;;4943077;29;20460;-90
2021/12/05 05:58:14;;;;;;;26.00;7.17;;;2.40;99.90;;;;;;4944387;29;20053;-90
2021/12/05 06:00:53;;;;;;;20.43;6.47;;;2.30;99.90;;;;;;4957000;29;20043;-90
2021/12/05 06:05:45;;;;;;;18.07;6.47;;;2.40;99.90;;;;;;4943780;29;20055;-90
2021/12/05 06:08:11;;;;;;;18.17;6.40;;;2.20;99.90;;;;;;4943447;29;20400;-90
2021/12/05 06:10:37;;;;;;;23.23;6.37;;;2.20;99.90;;;;;;4942985;29;20050;-90
2021/12/05 06:13:03;;;;;;;22.60;6.30;;;2.30;99.90;;;;;;4943126;29;20097;-90
2021/12/05 06:15:29;;;;;;;21.30;7.07;;;2.30;99.90;;;;;;4943237;29;20102;-90
2021/12/05 06:17:56;;;;;;;19.67;6.90;;;2.30;99.90;;;;;;4941922;29;20055;-90
2021/12/05 06:20:27;;;;;;;20.93;6.50;;;2.30;99.90;;;;;;4942164;29;20055;-90
2021/12/05 06:22:54;;;;;;;25.03;7.23;;;2.40;99.90;;;;;;4942240;29;20052;-90
2021/12/05 06:25:23;;;;;;;21.67;7.07;;;2.30;99.90;;;;;;4941573;29;20500;-90
2021/12/05 06:27:54;;;;;;;23.33;7.13;;;2.30;99.90;;;;;;4943178;29;20051;-90
2021/12/05 06:38:54;;;;;;;24.50;7.45;;;2.50;99.90;;;;;;4941950;29;20142;-90
2021/12/05 06:41:34;;;;;;;24.83;7.40;;;2.50;99.90;;;;;;4942782;29;20062;-91
2021/12/05 06:46:48;;;;;;;26.23;10.93;;;2.60;99.90;;;;;;4959147;29;20047;-90
2021/12/05 06:49:14;;;;;;;26.33;7.87;;;2.60;99.90;;;;;;4942387;29;20110;-90
2021/12/05 06:51:40;;;;;;;25.70;8.20;;;2.80;99.90;;;;;;4944415;29;20050;-90
2021/12/05 06:54:06;;;;;;;20.13;8.00;;;2.50;99.90;;;;;;4942690;29;20051;-90
2021/12/05 06:56:32;;;;;;;25.70;8.40;;;2.50;99.90;;;;;;4943379;29;20043;-90
2021/12/05 06:58:58;;;;;;;25.63;8.83;;;2.60;99.90;;;;;;4942048;29;20133;-89
2021/12/05 07:01:24;;;;;;;25.00;9.00;;;2.40;99.90;;;;;;4942472;29;20095;-90
2021/12/05 07:03:50;;;;;;;20.70;8.63;;;2.60;99.90;;;;;;4944717;29;20047;-90
2021/12/05 07:06:27;;;;;;;27.80;9.37;;;2.60;99.90;;;;;;4942659;29;20062;-90
2021/12/05 07:08:57;;;;;;;26.60;9.63;;;2.60;99.90;;;;;;4942428;29;20154;-90
2021/12/05 07:11:28;;;;;;;24.43;8.97;;;2.60;99.90;;;;;;4943252;29;20460;-90
2021/12/05 07:21:54;;;;;;;22.33;8.97;;;2.90;99.90;;;;;;4942159;29;20094;-90
2021/12/05 07:40:20;;;;;;;26.03;11.10;;;2.90;99.90;;;;;;4942267;29;20059;-90
2021/12/05 07:40:52;;;;;;;26.65;10.70;;;3.00;99.90;;;;;;4959463;29;20051;-85
2021/12/05 07:43:18;;;;;;;23.57;9.93;;;3.00;99.90;;;;;;4958557;29;20051;-84
2021/12/05 07:45:59;;;;;;;26.30;11.23;;;3.00;99.90;;;;;;4976675;28;20070;-85
2021/12/05 07:48:31;;;;;;;27.63;11.03;;;3.00;99.90;;;;;;4951025;29;20047;-85
2021/12/05 07:51:25;;;;;;;26.17;11.90;;;3.40;99.90;;;;;;4945225;29;20550;-85
2021/12/05 07:59:18;;;;;;;26.33;10.50;;;3.50;99.90;;;;;;4960192;29;20044;-85
2021/12/05 08:15:33;;;;;;;22.70;9.47;;;3.70;99.90;;;;;;4938364;29;20367;-84
2021/12/05 08:17:59;;;;;;;22.65;10.32;;;3.20;99.90;;;;;;4937409;29;20074;-84
2021/12/05 08:20:30;;;;;;;23.77;9.50;;;3.20;99.90;;;;;;4937801;29;20488;-85
2021/12/05 08:22:57;;;;;;;22.53;9.57;;;3.20;99.90;;;;;;4956230;29;20062;-85
2021/12/05 08:25:27;;;;;;;23.17;9.97;;;3.20;99.90;;;;;;4937866;29;20068;-86
2021/12/05 08:27:58;;;;;;;24.37;9.27;;;3.20;99.90;;;;;;4956143;29;20039;-85
2021/12/05 08:30:34;;;;;;;20.57;9.10;;;3.30;99.90;;;;;;4937962;29;20047;-87
2021/12/05 08:41:32;;;;;;;18.87;8.57;;;3.30;99.90;;;;;;4956287;29;20110;-91
2021/12/05 10:03:12;;;;;;;19.73;8.10;;;3.80;99.90;;;;;;4940876;29;20051;-91
2021/12/05 10:11:08;;;;;;;18.47;8.43;;;4.00;99.90;;;;;;4958086;28;20146;-87
2021/12/05 10:13:59;;;;;;;19.77;8.50;;;4.00;99.90;;;;;;4941892;29;20043;-88
2021/12/05 10:16:59;;;;;;;19.30;7.97;;;4.00;99.90;;;;;;4936544;29;20075;-86
2021/12/05 10:38:33;;;;;;;18.37;7.83;;;4.40;99.90;;;;;;4930151;29;20364;-86
2021/12/05 10:43:57;;;;;;;15.30;7.00;;;4.60;99.90;;;;;;4945509;29;20071;-86
2021/12/05 10:46:24;;;;;;;17.23;6.97;;;4.60;99.90;;;;;;4947411;29;20048;-86
2021/12/05 10:49:05;;;;;;;15.87;6.97;;;5.40;99.90;;;;;;4938617;29;20034;-86
2021/12/05 10:51:37;;;;;;;14.90;6.67;;;5.90;99.90;;;;;;4963210;29;20054;-86
2021/12/05 10:54:04;;;;;;;19.37;6.73;;;4.70;99.90;;;;;;4967231;29;20499;-87
2021/12/05 10:56:33;;;;;;;18.47;7.13;;;4.70;99.90;;;;;;4951627;29;20051;-87
2021/12/05 10:59:10;;;;;;;18.37;6.67;;;4.60;99.90;;;;;;4942227;29;20139;-86
2021/12/05 11:01:41;;;;;;;17.93;6.53;;;5.60;99.90;;;;;;4957123;28;20055;-87
2021/12/05 11:04:26;;;;;;;13.87;6.00;;;4.60;99.90;;;;;;4940124;29;20148;-86
2021/12/05 11:07:21;;;;;;;15.37;6.40;;;4.80;99.90;;;;;;4936753;29;20055;-85
2021/12/05 11:09:50;;;;;;;14.43;6.47;;;4.70;99.90;;;;;;4936603;29;20086;-85
2021/12/05 11:12:25;;;;;;;17.57;6.53;;;4.70;99.90;;;;;;4937924;29;20051;-86
2021/12/05 11:14:52;;;;;;;10.87;5.47;;;4.70;99.90;;;;;;4938846;29;20131;-85
2021/12/05 11:17:33;;;;;;;13.00;6.00;;;5.20;99.90;;;;;;4938849;29;20487;-86
2021/12/05 11:20:18;;;;;;;13.63;6.00;;;5.00;99.90;;;;;;4938042;29;20503;-85
2021/12/05 11:22:49;;;;;;;11.53;5.40;;;4.90;99.90;;;;;;4938441;29;20059;-86
2021/12/05 11:25:16;;;;;;;11.60;5.67;;;5.10;99.90;;;;;;4938935;29;20050;-86
2021/12/05 11:27:45;;;;;;;13.33;5.93;;;5.00;99.90;;;;;;4951325;28;20058;-85
2021/12/05 11:30:20;;;;;;;12.37;5.70;;;5.80;99.90;;;;;;4919754;29;20050;-85
2021/12/05 11:33:00;;;;;;;14.97;5.73;;;5.20;99.90;;;;;;4936106;29;20052;-85
2021/12/05 11:35:42;;;;;;;12.80;5.53;;;5.20;99.90;;;;;;4919260;29;20063;-85
2021/12/05 11:38:17;;;;;;;12.60;5.57;;;5.20;99.90;;;;;;4925153;29;20058;-87
2021/12/05 11:40:48;;;;;;;11.90;5.27;;;5.10;99.90;;;;;;4925653;29;20107;-88
2021/12/05 11:43:43;;;;;;;13.57;5.17;;;5.20;99.90;;;;;;4920245;29;20099;-88
2021/12/05 11:46:17;;;;;;;14.02;5.88;;;5.30;99.90;;;;;;4937857;29;20429;-87
2021/12/05 11:48:47;;;;;;;12.80;4.97;;;5.20;99.90;;;;;;4928750;29;20060;-88
2021/12/05 11:51:31;;;;;;;12.07;4.90;;;5.10;99.90;;;;;;4922155;29;20515;-87
2021/12/05 11:54:20;;;;;;;14.20;4.93;;;5.00;99.90;;;;;;4936833;29;20397;-87
2021/12/05 11:56:57;;;;;;;12.33;4.90;;;5.20;99.90;;;;;;4921807;29;20407;-88
2021/12/05 11:59:56;;;;;;;13.17;5.07;;;5.20;99.90;;;;;;4952055;28;20398;-85
2021/12/05 12:02:35;;;;;;;10.80;4.40;;;5.30;99.90;;;;;;4954137;28;20093;-87
2021/12/05 12:05:04;;;;;;;11.87;4.60;;;4.90;99.90;;;;;;4957593;28;20534;-87
2021/12/05 12:07:39;;;;;;;11.50;4.53;;;5.20;99.90;;;;;;4958411;28;20499;-88
2021/12/05 12:10:16;;;;;;;10.20;4.67;;;6.20;99.90;;;;;;4956895;28;20046;-88
2021/12/05 12:12:51;;;;;;;11.43;4.70;;;5.80;99.90;;;;;;4957047;28;20050;-86
2021/12/05 12:15:19;;;;;;;10.30;4.63;;;5.20;99.90;;;;;;4957271;28;20046;-86
2021/12/05 12:17:49;;;;;;;12.73;4.73;;;4.90;99.90;;;;;;4956526;28;20046;-88
2021/12/05 12:20:21;;;;;;;10.67;4.50;;;5.80;99.90;;;;;;4956356;28;20122;-85
2021/12/05 12:22:51;;;;;;;11.27;4.70;;;5.00;99.90;;;;;;4972017;28;20062;-85
2021/12/05 12:25:22;;;;;;;10.57;4.40;;;5.10;99.90;;;;;;4956559;28;20047;-85
2021/12/05 12:27:49;;;;;;;9.17;4.27;;;4.80;99.90;;;;;;4974130;28;20101;-85
2021/12/05 12:30:24;;;;;;;11.07;4.50;;;5.70;99.90;;;;;;4955884;28;20051;-85
2021/12/05 12:32:54;;;;;;;10.53;4.70;;;4.30;99.90;;;;;;4956351;28;20133;-86
2021/12/05 12:35:25;;;;;;;9.63;4.00;;;5.40;99.90;;;;;;4957192;28;20047;-85
2021/12/05 12:38:08;;;;;;;10.20;4.67;;;5.40;99.90;;;;;;4956014;28;20468;-85
2021/12/05 12:40:54;;;;;;;12.70;4.50;;;5.10;99.90;;;;;;4956953;28;20074;-86
2021/12/05 12:43:38;;;;;;;11.57;5.20;;;5.20;99.90;;;;;;4956709;28;20047;-86
2021/12/05 12:46:33;;;;;;;10.67;4.50;;;5.70;99.90;;;;;;4974151;28;20106;-85
2021/12/05 12:49:14;;;;;;;10.00;4.20;;;5.20;99.90;;;;;;4956364;28;20411;-86
2021/12/05 12:52:03;;;;;;;10.73;4.27;;;4.90;99.90;;;;;;4973737;28;20043;-86
2021/12/05 12:54:36;;;;;;;10.83;5.03;;;5.10;99.90;;;;;;4974607;28;20051;-88
2021/12/05 12:57:20;;;;;;;11.07;4.60;;;6.10;99.90;;;;;;4974084;28;20133;-88
2021/12/05 13:00:08;;;;;;;11.70;4.43;;;5.30;99.90;;;;;;4956053;28;20094;-88
2021/12/05 13:03:12;;;;;;;10.60;4.73;;;5.10;99.90;;;;;;4957702;28;20105;-88
2021/12/05 13:11:23;;;;;;;11.93;4.90;;;6.40;99.90;;;;;;4959074;28;20113;-88
2021/12/05 13:14:05;;;;;;;11.93;5.07;;;5.00;99.90;;;;;;4938970;29;20051;-90
2021/12/05 13:16:35;;;;;;;11.80;4.60;;;5.10;99.90;;;;;;4930667;29;20051;-92
2021/12/05 13:19:11;;;;;;;10.80;4.57;;;4.80;99.90;;;;;;4929660;29;20047;-91
2021/12/05 13:21:42;;;;;;;10.30;4.83;;;4.90;99.90;;;;;;4929945;29;20051;-91
2021/12/05 13:24:31;;;;;;;10.73;4.60;;;5.30;99.90;;;;;;4927580;29;20464;-90
2021/12/05 13:27:03;;;;;;;11.10;4.40;;;4.50;99.90;;;;;;4955559;28;20082;-92
2021/12/05 13:29:53;;;;;;;9.97;4.63;;;5.10;99.90;;;;;;4956906;28;20053;-90
2021/12/05 13:32:56;;;;;;;9.43;4.60;;;4.90;99.90;;;;;;4958446;28;20423;-91
2021/12/05 13:35:24;;;;;;;10.40;4.97;;;5.00;99.90;;;;;;4976499;28;20034;-90
2021/12/05 13:37:54;;;;;;;10.20;4.87;;;4.90;99.90;;;;;;4951078;28;20036;-90
2021/12/05 13:40:38;;;;;;;11.23;4.73;;;4.80;99.90;;;;;;4955246;28;20042;-91
2021/12/05 13:43:22;;;;;;;11.02;5.38;;;6.20;99.90;;;;;;4965566;28;20057;-91
2021/12/05 13:46:04;;;;;;;10.43;4.73;;;5.70;99.90;;;;;;4974198;28;20091;-91
2021/12/05 13:48:33;;;;;;;11.10;4.87;;;5.90;99.90;;;;;;4957067;28;20085;-90
2021/12/05 13:53:55;;;;;;;11.87;5.17;;;5.00;99.90;;;;;;4950490;28;20059;-91
2021/12/05 13:56:25;;;;;;;12.53;5.50;;;4.90;99.90;;;;;;4964594;28;20070;-90
2021/12/05 13:58:56;;;;;;;10.77;5.27;;;5.00;99.90;;;;;;4997065;28;20070;-89
2021/12/05 14:01:51;;;;;;;14.13;6.27;;;4.60;99.90;;;;;;4981106;28;20030;-91
2021/12/05 14:07:18;;;;;;;12.50;5.73;;;5.20;99.90;;;;;;4980165;28;20073;-88
2021/12/05 14:10:03;;;;;;;11.93;5.70;;;5.70;99.90;;;;;;4959901;28;20078;-89
2021/12/05 14:12:41;;;;;;;13.07;5.97;;;4.60;99.90;;;;;;4960289;28;20042;-89
2021/12/05 14:15:14;;;;;;;11.00;5.67;;;4.20;99.90;;;;;;4956936;28;20047;-92
2021/12/05 14:17:42;;;;;;;11.20;5.27;;;4.40;99.90;;;;;;4962674;28;20098;-93
2021/12/05 14:20:20;;;;;;;11.47;5.50;;;4.40;99.90;;;;;;4961179;28;20582;-91
2021/12/05 14:22:52;;;;;;;11.63;5.67;;;4.60;99.90;;;;;;4949773;29;20452;-90
2021/12/05 14:25:24;;;;;;;12.43;5.43;;;4.40;99.90;;;;;;4938329;29;20062;-92
2021/12/05 14:27:57;;;;;;;25.13;12.20;;;4.60;99.90;;;;;;4922251;29;20043;-90
2021/12/05 14:30:25;;;;;;;26.63;13.57;;;4.80;99.90;;;;;;4937242;29;20179;-90
2021/12/05 14:32:58;;;;;;;19.83;10.97;;;5.30;99.90;;;;;;4921162;29;20043;-90
2021/12/05 14:35:36;;;;;;;19.10;10.33;;;5.60;99.90;;;;;;4922009;29;20142;-90
2021/12/05 14:38:03;;;;;;;17.33;10.53;;;5.20;99.90;;;;;;4936461;29;20059;-90
2021/12/05 14:40:31;;;;;;;18.57;11.40;;;4.10;99.90;;;;;;4937382;29;20066;-89
2021/12/05 14:43:02;;;;;;;20.03;12.27;;;4.40;99.90;;;;;;4937223;29;20484;-89
2021/12/05 14:45:29;;;;;;;17.63;9.50;;;4.10;99.90;;;;;;4920759;29;20060;-90
2021/12/05 14:47:56;;;;;;;16.83;10.23;;;4.10;99.90;;;;;;4921715;29;20043;-90
2021/12/05 14:50:33;;;;;;;16.03;8.67;;;5.00;99.90;;;;;;4936931;29;20043;-89
2021/12/05 14:53:03;;;;;;;14.77;7.93;;;5.20;99.90;;;;;;4936554;29;20048;-89
2021/12/05 14:55:32;;;;;;;14.77;7.90;;;3.80;99.90;;;;;;4931364;29;20064;-86
2021/12/05 14:58:02;;;;;;;16.10;7.30;;;4.70;99.90;;;;;;4916111;29;20043;-89
2021/12/05 15:00:38;;;;;;;16.40;9.67;;;4.00;99.90;;;;;;4920023;29;20107;-86
2021/12/05 15:03:08;;;;;;;17.40;9.90;;;5.00;99.90;;;;;;4919826;29;20050;-85
2021/12/05 15:05:37;;;;;;;16.90;10.20;;;5.20;99.90;;;;;;4934565;29;20089;-86
2021/12/05 15:08:06;;;;;;;20.70;11.00;;;4.70;99.90;;;;;;4934930;29;20048;-86
2021/12/05 15:10:32;;;;;;;24.23;12.03;;;4.40;99.90;;;;;;4937327;29;20425;-87
2021/12/05 15:12:59;;;;;;;19.43;11.93;;;4.20;99.90;;;;;;4935951;29;20063;-86
2021/12/05 15:15:26;;;;;;;20.47;11.80;;;5.20;99.90;;;;;;4936623;29;20500;-86
2021/12/05 15:17:54;;;;;;;24.23;14.00;;;4.00;99.90;;;;;;4935780;29;20122;-86
2021/12/05 15:20:23;;;;;;;22.87;12.73;;;4.10;99.90;;;;;;4934257;29;20047;-90
2021/12/05 15:22:53;;;;;;;23.43;13.13;;;4.40;99.90;;;;;;4932611;29;20055;-88
2021/12/05 15:25:24;;;;;;;22.23;12.60;;;5.30;99.90;;;;;;4935741;29;20052;-87
2021/12/05 15:27:50;;;;;;;19.77;11.43;;;4.10;99.90;;;;;;4934037;29;20027;-85
2021/12/05 15:30:27;;;;;;;20.37;11.00;;;5.10;99.90;;;;;;4922462;29;20052;-86
2021/12/05 15:32:58;;;;;;;15.47;9.90;;;4.20;99.90;;;;;;4933903;29;20453;-85
2021/12/05 15:35:25;;;;;;;17.53;9.33;;;4.20;99.90;;;;;;4935283;29;20405;-88
2021/12/05 15:37:52;;;;;;;15.70;9.43;;;4.10;99.90;;;;;;4935484;29;20429;-86
2021/12/05 15:40:18;;;;;;;16.57;9.43;;;4.00;99.90;;;;;;4938519;29;20047;-86
2021/12/05 15:42:45;;;;;;;18.03;10.67;;;4.50;99.90;;;;;;4903608;29;20044;-86
2021/12/05 15:45:14;;;;;;;17.40;10.13;;;4.80;99.90;;;;;;4934275;29;20044;-85
2021/12/05 15:47:40;;;;;;;18.57;9.87;;;4.70;99.90;;;;;;4932013;29;20043;-84
2021/12/05 15:50:12;;;;;;;17.53;10.83;;;4.00;99.90;;;;;;4934127;29;20032;-85
2021/12/05 15:53:07;;;;;;;19.30;11.37;;;4.20;99.90;;;;;;4933498;29;20977;-94
2021/12/05 15:55:37;;;;;;;19.45;12.25;;;4.20;99.90;;;;;;4917718;29;20123;-92
2021/12/05 15:58:13;;;;;;;18.57;12.87;;;4.00;99.90;;;;;;4908814;29;20075;-92
2021/12/05 16:00:49;;;;;;;17.57;11.40;;;4.20;99.90;;;;;;4921967;29;20055;-93
2021/12/05 16:03:19;;;;;;;20.37;12.00;;;4.30;99.90;;;;;;5154600;23;20075;-91
2021/12/05 16:05:51;;;;;;;19.20;10.20;;;4.70;99.90;;;;;;4936642;29;20056;-91
2021/12/05 16:08:17;;;;;;;16.93;9.90;;;4.10;99.90;;;;;;4935541;29;20051;-93
2021/12/05 16:10:50;;;;;;;20.07;11.80;;;3.50;99.90;;;;;;4943919;29;20122;-92
2021/12/05 16:13:19;;;;;;;18.57;11.23;;;4.00;99.90;;;;;;4949085;29;20051;-93
2021/12/05 16:15:48;;;;;;;18.67;11.73;;;5.00;99.90;;;;;;4934893;29;20083;-93
2021/12/05 16:18:15;;;;;;;17.50;10.93;;;3.40;99.90;;;;;;4936124;29;20044;-93
2021/12/05 16:20:45;;;;;;;19.00;12.17;;;5.80;99.90;;;;;;4942865;29;20043;-94
2021/12/05 16:23:15;;;;;;;18.63;12.07;;;4.00;99.90;;;;;;4938974;29;20094;-91
2021/12/05 16:25:45;;;;;;;19.90;11.80;;;4.20;99.90;;;;;;4954289;29;20043;-92
2021/12/05 16:28:12;;;;;;;18.70;12.07;;;5.10;99.90;;;;;;4955763;29;20131;-94
2021/12/05 16:30:42;;;;;;;21.03;12.60;;;3.90;99.90;;;;;;4954516;29;20069;-92
2021/12/05 16:33:10;;;;;;;21.97;13.60;;;4.20;99.90;;;;;;4950881;29;20086;-92
2021/12/05 16:35:46;;;;;;;22.70;14.07;;;4.30;99.90;;;;;;4954014;29;20043;-92
2021/12/05 16:38:21;;;;;;;26.07;13.20;;;4.10;99.90;;;;;;4952203;29;20381;-92
2021/12/05 16:40:54;;;;;;;22.83;13.47;;;3.80;99.90;;;;;;4950748;29;20039;-92
2021/12/05 16:43:21;;;;;;;24.35;12.85;;;4.10;99.90;;;;;;4952938;29;20180;-92
2021/12/05 16:45:46;;;;;;;28.27;14.37;;;4.00;99.90;;;;;;4950039;29;20051;-92
2021/12/05 16:48:16;;;;;;;22.70;13.53;;;4.40;99.90;;;;;;4948718;29;20043;-92
2021/12/05 16:50:44;;;;;;;31.00;14.60;;;5.30;99.90;;;;;;4937983;29;20048;-93
2021/12/05 16:53:13;;;;;;;29.47;15.13;;;3.80;99.90;;;;;;4955416;29;20061;-91
2021/12/05 16:55:45;;;;;;;25.20;14.80;;;4.00;99.90;;;;;;4955071;29;20047;-90
2021/12/05 16:58:17;;;;;;;26.20;14.23;;;4.60;99.90;;;;;;4955198;29;20061;-91
2021/12/05 17:00:50;;;;;;;24.83;13.10;;;4.20;99.90;;;;;;4954340;29;20130;-89
2021/12/05 17:03:23;;;;;;;32.13;14.77;;;5.20;99.90;;;;;;4956105;29;20077;-89
2021/12/05 17:05:53;;;;;;;27.73;14.97;;;4.90;99.90;;;;;;4969649;28;20043;-89
2021/12/05 17:08:24;;;;;;;29.30;15.50;;;5.00;99.90;;;;;;4978471;28;20117;-90
2021/12/05 17:10:56;;;;;;;30.37;15.60;;;4.10;99.90;;;;;;4975505;28;20078;-90
2021/12/05 17:13:41;;;;;;;29.73;15.50;;;4.20;99.90;;;;;;4965310;29;20095;-91
2021/12/05 17:16:09;;;;;;;29.67;15.50;;;4.00;99.90;;;;;;4959067;29;20130;-94
2021/12/05 17:19:01;;;;;;;28.83;15.30;;;4.40;99.90;;;;;;4953499;29;20048;-94
2021/12/05 17:25:47;;;;;;;27.00;13.57;;;4.20;99.90;;;;;;4953530;29;20045;-91
2021/12/05 17:28:43;;;;;;;30.40;14.23;;;4.50;99.90;;;;;;4967709;28;20067;-92
2021/12/05 17:31:11;;;;;;;25.50;14.00;;;4.30;99.90;;;;;;4930222;29;20051;-91
2021/12/05 17:33:51;;;;;;;23.37;13.37;;;3.80;99.90;;;;;;4957804;29;20050;-93
2021/12/05 17:36:20;;;;;;;27.03;14.80;;;4.90;99.90;;;;;;4979261;28;20059;-90
2021/12/05 17:38:46;;;;;;;29.80;15.93;;;3.90;99.90;;;;;;4960165;29;20034;-93
2021/12/05 17:41:12;;;;;;;30.37;15.33;;;4.60;99.90;;;;;;4958535;28;20399;-93
2021/12/05 17:43:38;;;;;;;27.67;15.10;;;4.80;99.90;;;;;;4958488;28;20047;-93
2021/12/05 17:46:04;;;;;;;25.67;14.57;;;4.80;99.90;;;;;;4955614;28;20048;-93
2021/12/05 17:48:30;;;;;;;23.40;13.10;;;4.80;99.90;;;;;;4955320;29;20063;-94
2021/12/05 17:50:56;;;;;;;26.13;14.07;;;3.90;99.90;;;;;;4955773;29;20134;-92
2021/12/05 17:53:29;;;;;;;27.33;14.47;;;3.70;99.90;;;;;;4950938;29;20138;-94
2021/12/05 17:56:02;;;;;;;27.63;15.40;;;3.90;99.90;;;;;;4955818;29;20047;-94
2021/12/05 17:58:52;;;;;;;28.23;15.05;;;4.80;99.90;;;;;;4955119;29;20058;-95
2021/12/05 18:04:05;;;;;;;32.57;16.53;;;4.10;99.90;;;;;;4943312;29;20047;-93
2021/12/05 18:06:32;;;;;;;31.17;16.23;;;4.00;99.90;;;;;;4953830;29;20519;-95
2021/12/05 18:08:58;;;;;;;30.63;16.63;;;4.90;99.90;;;;;;4947211;29;20058;-93
2021/12/05 18:11:24;;;;;;;32.83;17.90;;;4.00;99.90;;;;;;4945304;29;20051;-94
2021/12/05 18:13:55;;;;;;;35.43;19.33;;;4.40;99.90;;;;;;4954424;29;20090;-93
2021/12/05 18:16:23;;;;;;;35.23;19.30;;;4.20;99.90;;;;;;4955190;29;20042;-92
2021/12/05 18:18:56;;;;;;;39.43;20.63;;;4.70;99.90;;;;;;4953980;29;20050;-94
2021/12/05 18:21:24;;;;;;;43.00;21.27;;;4.10;99.90;;;;;;4956194;29;20043;-93
2021/12/05 18:23:50;;;;;;;38.33;21.10;;;3.70;99.90;;;;;;4934982;29;20049;-94
2021/12/05 18:26:16;;;;;;;39.77;21.70;;;4.00;99.90;;;;;;4950601;29;20051;-94
2021/12/05 18:28:45;;;;;;;41.87;21.93;;;4.00;99.90;;;;;;4933576;29;20824;-94
2021/12/05 18:31:17;;;;;;;41.77;23.30;;;3.90;99.90;;;;;;4938934;29;20043;-93
2021/12/05 18:33:44;;;;;;;50.70;24.83;;;3.70;99.90;;;;;;4937001;29;20107;-95